Time;durP1;ratioP1;P1;durP2;ratioP2;P2;SDS_P1;SDS_P2;PMS_P1;PMS_P2;Temp;Humidity;BMP_temperature;BMP_pressure;BME280_temperature;BME280_humidity;BME280_pressure;Samples;Min_cycle;Max_cycle;Signal;HPM_P1;HPM_P2
2024/01/14 00:00:21;;;;;;;;;;;;;;;2.60;93.56;100146.41;4196338;28;20390;-72
2024/01/14 00:02:23;;;;;;;;;;;;;;;2.63;93.51;100142.63;4197216;28;20348;-72
2024/01/14 00:04:25;;;;;;;;;;;;;;;2.61;93.47;100139.25;4204471;28;20019;-71
2024/01/14 00:06:27;;;;;;;;;;;;;;;2.60;93.53;100127.75;4196524;28;20023;-72
2024/01/14 00:08:28;;;;;;;;;;;;;;;2.63;93.49;100134.63;4195278;28;20035;-71
2024/01/14 00:10:30;;;;;;;;;;;;;;;2.61;93.64;100134.75;4203821;28;20428;-71
2024/01/14 00:12:33;;;;;;;;;;;;;;;2.61;93.63;100126.75;4195971;28;19986;-71
2024/01/14 00:14:36;;;;;;;;;;;;;;;2.60;93.62;100138.41;4195921;28;20369;-72
2024/01/14 00:16:38;;;;;;;;;;;;;;;2.60;93.53;100134.91;4197892;28;19936;-71
2024/01/14 00:18:40;;;;;;;;;;;;;;;2.61;93.72;100128.59;4203928;28;19967;-71
2024/01/14 00:20:42;;;;;;;;;;;;;;;2.61;93.65;100131.25;4196955;28;20404;-71
2024/01/14 00:22:44;;;;;;;;;;;;;;;2.61;93.50;100121.41;4196229;28;20019;-71
2024/01/14 00:24:46;;;;;;;;;;;;;;;2.59;93.35;100120.72;4197189;28;20027;-71
2024/01/14 00:26:49;;;;;;;;;;;;;;;2.60;93.67;100116.22;4196584;28;20031;-71
2024/01/14 00:28:53;;;;;;;;;;;;;;;2.59;93.59;100136.72;4203898;28;19947;-71
2024/01/14 00:30:55;;;;;;;;;;;;;;;2.61;93.37;100123.25;4203335;28;20030;-71
2024/01/14 00:32:57;;;;;;;;;;;;;;;2.61;93.66;100121.41;4196354;28;19960;-71
2024/01/14 00:34:58;;;;;;;;;;;;;;;2.62;93.75;100119.63;4197089;28;19979;-71
2024/01/14 00:37:01;;;;;;;;;;;;;;;2.61;93.60;100108.09;4198123;28;19924;-71
2024/01/14 00:39:03;;;;;;;;;;;;;;;2.61;93.51;100101.94;4198500;28;20020;-71
2024/01/14 00:41:05;;;;;;;;;;;;;;;2.62;93.56;100103.63;4199715;28;20015;-71
2024/01/14 00:43:06;;;;;;;;;;;;;;;2.62;93.51;100107.13;4198824;28;20023;-71
2024/01/14 00:45:10;;;;;;;;;;;;;;;2.62;93.35;100099.13;4199238;28;19962;-71
2024/01/14 00:47:11;;;;;;;;;;;;;;;2.63;93.75;100087.47;4199808;28;20388;-72
2024/01/14 00:49:13;;;;;;;;;;;;;;;2.63;93.56;100090.16;4198575;28;20376;-71
2024/01/14 00:51:14;;;;;;;;;;;;;;;2.65;93.66;100095.31;4197285;28;19992;-71
2024/01/14 00:53:16;;;;;;;;;;;;;;;2.62;93.72;100085.78;4197918;28;19978;-71
2024/01/14 00:55:18;;;;;;;;;;;;;;;2.61;93.90;100092.09;4198666;28;20412;-71
2024/01/14 00:57:19;;;;;;;;;;;;;;;2.63;93.67;100089.28;4199800;28;19982;-71
2024/01/14 00:59:21;;;;;;;;;;;;;;;2.64;93.88;100104.31;4198461;28;20023;-71
2024/01/14 01:01:24;;;;;;;;;;;;;;;2.65;93.65;100087.31;4206368;28;19951;-71
2024/01/14 01:03:26;;;;;;;;;;;;;;;2.66;93.92;100084.50;4203468;28;20369;-71
2024/01/14 01:05:28;;;;;;;;;;;;;;;2.66;93.66;100078.34;4199209;28;20007;-71
2024/01/14 01:07:30;;;;;;;;;;;;;;;2.66;93.75;100076.50;4197687;28;19963;-70
2024/01/14 01:09:32;;;;;;;;;;;;;;;2.66;93.72;100078.34;4198801;28;20019;-71
2024/01/14 01:11:34;;;;;;;;;;;;;;;2.66;93.71;100076.50;4198614;28;19960;-71
2024/01/14 01:13:36;;;;;;;;;;;;;;;2.66;94.14;100075.69;4197151;28;19956;-71
2024/01/14 01:15:38;;;;;;;;;;;;;;;2.67;94.00;100080.03;4198094;28;20024;-71
2024/01/14 01:17:42;;;;;;;;;;;;;;;2.65;93.96;100079.31;4206735;28;20355;-71
2024/01/14 01:19:44;;;;;;;;;;;;;;;2.65;93.86;100092.66;4214186;28;20014;-71
2024/01/14 01:21:46;;;;;;;;;;;;;;;2.67;93.83;100077.38;4199275;28;20390;-71
2024/01/14 01:23:49;;;;;;;;;;;;;;;2.67;93.87;100075.53;4198021;28;20441;-71
2024/01/14 01:25:51;;;;;;;;;;;;;;;2.66;93.95;100073.00;4198630;28;20359;-71
2024/01/14 01:27:53;;;;;;;;;;;;;;;2.68;93.97;100073.69;4199363;28;19966;-71
2024/01/14 01:29:55;;;;;;;;;;;;;;;2.68;93.84;100065.69;4199154;28;20030;-71
2024/01/14 01:31:57;;;;;;;;;;;;;;;2.67;93.61;100053.38;4199928;28;19986;-71
2024/01/14 01:34:00;;;;;;;;;;;;;;;2.66;93.73;100059.69;4190563;28;20028;-71
2024/01/14 01:36:02;;;;;;;;;;;;;;;2.67;93.63;100066.69;4199700;28;19966;-71
2024/01/14 01:38:05;;;;;;;;;;;;;;;2.67;93.60;100069.38;4198481;28;19932;-71
2024/01/14 01:40:09;;;;;;;;;;;;;;;2.65;93.61;100056.19;4195761;28;20010;-71
2024/01/14 01:42:11;;;;;;;;;;;;;;;2.65;93.81;100058.84;4198137;28;19931;-71
2024/01/14 01:44:13;;;;;;;;;;;;;;;2.66;93.75;100062.34;4198550;28;20019;-71
2024/01/14 01:46:15;;;;;;;;;;;;;;;2.66;93.71;100062.34;4207010;28;20398;-71
2024/01/14 01:48:19;;;;;;;;;;;;;;;2.64;94.00;100045.66;4189816;28;19967;-70
2024/01/14 01:50:22;;;;;;;;;;;;;;;2.63;93.77;100044.81;4214712;28;20452;-71
2024/01/14 01:52:23;;;;;;;;;;;;;;;2.66;93.97;100038.34;4198624;28;20035;-71
2024/01/14 01:54:26;;;;;;;;;;;;;;;2.64;94.14;100043.00;4199047;28;19952;-71
2024/01/14 01:56:28;;;;;;;;;;;;;;;2.63;93.75;100039.50;4198812;28;19956;-71
2024/01/14 01:58:30;;;;;;;;;;;;;;;2.62;94.02;100032.47;4207367;28;19985;-71
2024/01/14 02:00:34;;;;;;;;;;;;;;;2.61;94.07;100044.09;4212655;28;20474;-71
2024/01/14 02:02:36;;;;;;;;;;;;;;;2.62;94.07;100027.13;4205886;28;20434;-71
2024/01/14 02:04:38;;;;;;;;;;;;;;;2.62;94.01;100035.13;4198582;28;20554;-71
2024/01/14 02:06:42;;;;;;;;;;;;;;;2.62;93.85;100023.63;4199316;28;20400;-71
2024/01/14 02:08:44;;;;;;;;;;;;;;;2.62;93.95;100020.97;4196038;28;20019;-71
2024/01/14 02:10:46;;;;;;;;;;;;;;;2.61;94.28;99993.44;4196380;28;19937;-71
2024/01/14 02:12:49;;;;;;;;;;;;;;;2.61;93.99;99988.13;4198329;28;20027;-72
2024/01/14 02:14:51;;;;;;;;;;;;;;;2.60;94.29;99985.59;4197976;28;19971;-71
2024/01/14 02:16:53;;;;;;;;;;;;;;;2.61;94.05;100006.78;4197397;28;19967;-71
2024/01/14 02:18:54;;;;;;;;;;;;;;;2.60;94.06;100014.91;4197230;28;20469;-71
2024/01/14 02:20:56;;;;;;;;;;;;;;;2.61;93.99;100011.28;4206395;28;19959;-71
2024/01/14 02:22:59;;;;;;;;;;;;;;;2.57;94.20;100010.72;4196996;28;19928;-71
2024/01/14 02:25:03;;;;;;;;;;;;;;;2.57;94.23;100016.06;4195537;28;20538;-71
2024/01/14 02:27:06;;;;;;;;;;;;;;;2.56;94.19;100013.53;4196764;28;20566;-71
2024/01/14 02:29:08;;;;;;;;;;;;;;;2.56;94.29;100026.88;4197164;28;20019;-71
2024/01/14 02:31:10;;;;;;;;;;;;;;;2.55;94.60;100018.00;4195156;28;20031;-71
2024/01/14 02:33:12;;;;;;;;;;;;;;;2.55;94.62;100014.50;4204208;28;20816;-71
2024/01/14 02:35:14;;;;;;;;;;;;;;;2.53;94.56;100010.16;4197252;28;19960;-71
2024/01/14 02:37:16;;;;;;;;;;;;;;;2.53;94.72;100015.50;4197749;28;19928;-71
2024/01/14 02:39:17;;;;;;;;;;;;;;;2.54;94.85;100011.03;4197145;28;20027;-71
2024/01/14 02:41:20;;;;;;;;;;;;;;;2.54;94.56;100011.03;4196810;28;20027;-71
2024/01/14 02:43:22;;;;;;;;;;;;;;;2.53;94.35;100001.34;4197309;28;20445;-71
2024/01/14 02:45:23;;;;;;;;;;;;;;;2.52;94.85;99992.50;4198860;28;19975;-70
2024/01/14 02:47:25;;;;;;;;;;;;;;;2.53;94.82;100004.00;4196786;28;19963;-71
2024/01/14 02:49:27;;;;;;;;;;;;;;;2.51;94.82;99982.00;4196395;28;20047;-71
2024/01/14 02:51:29;;;;;;;;;;;;;;;2.51;94.68;99977.47;4196885;28;19996;-71
2024/01/14 02:53:31;;;;;;;;;;;;;;;2.51;94.73;99977.47;4196276;28;20023;-71
2024/01/14 02:55:33;;;;;;;;;;;;;;;2.51;94.70;99996.16;4197679;28;20804;-71
2024/01/14 02:57:37;;;;;;;;;;;;;;;2.52;94.57;100000.50;4197728;28;20019;-71
2024/01/14 02:59:38;;;;;;;;;;;;;;;2.51;94.70;99989.97;4196571;28;20031;-71
2024/01/14 03:01:43;;;;;;;;;;;;;;;2.53;94.72;99993.34;4195762;28;20007;-72
2024/01/14 03:03:45;;;;;;;;;;;;;;;2.51;94.90;99996.16;4197060;28;19956;-71
2024/01/14 03:05:47;;;;;;;;;;;;;;;2.51;94.93;99996.16;4195613;28;20007;-71
2024/01/14 03:07:49;;;;;;;;;;;;;;;2.50;94.82;99988.28;4195614;28;20023;-71
2024/01/14 03:09:51;;;;;;;;;;;;;;;2.51;94.83;99982.81;4195799;28;19994;-71
2024/01/14 03:11:53;;;;;;;;;;;;;;;2.51;94.62;99984.66;4194650;28;19997;-71
2024/01/14 03:13:56;;;;;;;;;;;;;;;2.51;94.80;99974.00;4197850;28;20425;-71
2024/01/14 03:15:58;;;;;;;;;;;;;;;2.51;94.71;99974.81;4198351;28;19974;-71
2024/01/14 03:17:59;;;;;;;;;;;;;;;2.52;94.59;99973.84;4197266;28;20462;-71
2024/01/14 03:20:02;;;;;;;;;;;;;;;2.51;94.68;99966.00;4195707;28;20027;-71
2024/01/14 03:22:04;;;;;;;;;;;;;;;2.51;94.82;99966.81;4197615;28;19964;-71
2024/01/14 03:24:05;;;;;;;;;;;;;;;2.50;94.65;99965.13;4197074;28;19925;-71
2024/01/14 03:26:07;;;;;;;;;;;;;;;2.50;94.93;99961.63;4199812;28;19974;-72
2024/01/14 03:28:09;;;;;;;;;;;;;;;2.52;94.68;99962.31;4197258;28;19984;-71
2024/01/14 03:30:13;;;;;;;;;;;;;;;2.52;94.66;99957.00;4196830;28;20358;-71
2024/01/14 03:32:15;;;;;;;;;;;;;;;2.53;94.55;99970.19;4198358;28;20468;-71
2024/01/14 03:34:16;;;;;;;;;;;;;;;2.53;94.81;99974.69;4198271;28;19964;-71
2024/01/14 03:36:18;;;;;;;;;;;;;;;2.52;94.45;99970.31;4197090;28;19955;-71
2024/01/14 03:38:20;;;;;;;;;;;;;;;2.51;94.40;99958.81;4197558;28;19960;-71
2024/01/14 03:40:22;;;;;;;;;;;;;;;2.52;94.64;99970.31;4211659;28;20035;-72
2024/01/14 03:42:24;;;;;;;;;;;;;;;2.50;94.37;99967.78;4203459;28;20375;-72
2024/01/14 03:44:26;;;;;;;;;;;;;;;2.51;94.65;99952.66;4212026;28;19924;-72
2024/01/14 03:46:29;;;;;;;;;;;;;;;2.49;94.66;99966.13;4197852;28;19987;-71
2024/01/14 03:48:31;;;;;;;;;;;;;;;2.49;94.52;99958.13;4197227;28;19975;-71
2024/01/14 03:50:33;;;;;;;;;;;;;;;2.50;94.36;99956.31;4204945;28;20357;-72
2024/01/14 03:52:35;;;;;;;;;;;;;;;2.49;94.50;99950.13;4196043;28;20425;-71
2024/01/14 03:54:37;;;;;;;;;;;;;;;2.49;94.65;99941.28;4196168;28;19928;-71
2024/01/14 03:56:39;;;;;;;;;;;;;;;2.48;94.50;99948.44;4196466;28;20458;-72
2024/01/14 03:58:41;;;;;;;;;;;;;;;2.49;94.36;99933.28;4197033;28;19952;-72
2024/01/14 04:00:42;;;;;;;;;;;;;;;2.51;94.33;99942.84;4196737;28;20034;-71
2024/01/14 04:02:46;;;;;;;;;;;;;;;2.49;94.20;99944.81;4197830;28;20390;-72
2024/01/14 04:04:48;;;;;;;;;;;;;;;2.48;94.04;99945.78;4197213;28;20394;-71
2024/01/14 04:06:50;;;;;;;;;;;;;;;2.48;94.09;99952.94;4197754;28;20012;-72
2024/01/14 04:08:52;;;;;;;;;;;;;;;2.47;94.08;99941.44;4194743;28;19929;-71
2024/01/14 04:10:54;;;;;;;;;;;;;;;2.45;94.08;99940.75;4198881;28;19971;-72
2024/01/14 04:12:56;;;;;;;;;;;;;;;2.46;93.97;99942.44;4198905;28;19931;-71
2024/01/14 04:14:57;;;;;;;;;;;;;;;2.44;94.14;99949.72;4199586;28;20535;-72
2024/01/14 04:16:59;;;;;;;;;;;;;;;2.44;93.80;99957.69;4198731;28;19967;-71
2024/01/14 04:19:03;;;;;;;;;;;;;;;2.44;94.07;99956.88;4215487;28;19932;-71
2024/01/14 04:21:04;;;;;;;;;;;;;;;2.44;94.02;99956.88;4200353;28;20390;-72
2024/01/14 04:23:06;;;;;;;;;;;;;;;2.43;93.86;99949.84;4199229;28;20345;-71
2024/01/14 04:25:08;;;;;;;;;;;;;;;2.44;93.85;99957.69;4199793;28;20378;-71
2024/01/14 04:27:10;;;;;;;;;;;;;;;2.44;93.79;99952.38;4207762;28;20015;-72
2024/01/14 04:29:12;;;;;;;;;;;;;;;2.44;93.79;99956.88;4200525;28;19959;-71
2024/01/14 04:31:14;;;;;;;;;;;;;;;2.43;93.98;99961.38;4199860;28;20374;-71
2024/01/14 04:33:15;;;;;;;;;;;;;;;2.42;93.82;99965.00;4207184;28;20388;-71
2024/01/14 04:35:18;;;;;;;;;;;;;;;2.43;93.62;99964.03;4200680;28;19960;-71
2024/01/14 04:37:20;;;;;;;;;;;;;;;2.43;93.98;99972.03;4200576;28;19982;-71
2024/01/14 04:39:22;;;;;;;;;;;;;;;2.45;93.67;99971.91;4200096;28;20375;-71
2024/01/14 04:41:23;;;;;;;;;;;;;;;2.44;93.89;99976.38;4199364;28;20675;-71
2024/01/14 04:43:25;;;;;;;;;;;;;;;2.45;93.83;99974.56;4200346;28;19975;-71
2024/01/14 04:45:28;;;;;;;;;;;;;;;2.44;93.68;99980.88;4199027;28;20412;-71
2024/01/14 04:47:30;;;;;;;;;;;;;;;2.44;93.68;99976.38;4200580;28;19956;-71
2024/01/14 04:49:32;;;;;;;;;;;;;;;2.44;93.83;99979.03;4213822;28;19971;-71
2024/01/14 04:51:35;;;;;;;;;;;;;;;2.44;93.57;99973.69;4199782;28;19931;-72
2024/01/14 04:53:37;;;;;;;;;;;;;;;2.44;93.67;99979.03;4207369;28;20019;-70
2024/01/14 04:55:39;;;;;;;;;;;;;;;2.45;93.68;99983.38;4188864;28;19971;-71
2024/01/14 04:57:41;;;;;;;;;;;;;;;2.46;93.86;99969.09;4200436;28;19972;-71
2024/01/14 04:59:43;;;;;;;;;;;;;;;2.46;93.89;99981.56;4199186;28;20361;-71
2024/01/14 05:01:45;;;;;;;;;;;;;;;2.47;93.50;99970.75;4198792;28;20019;-71
2024/01/14 05:03:48;;;;;;;;;;;;;;;2.48;93.82;99983.09;4199491;28;20036;-72
2024/01/14 05:05:50;;;;;;;;;;;;;;;2.49;93.59;99981.25;4200209;28;20402;-72
2024/01/14 05:07:53;;;;;;;;;;;;;;;2.48;93.58;99967.09;4199499;28;19963;-71
2024/01/14 05:09:55;;;;;;;;;;;;;;;2.49;93.46;99967.94;4199527;28;19944;-73
2024/01/14 05:11:57;;;;;;;;;;;;;;;2.50;93.35;99966.97;4180588;28;19925;-71
2024/01/14 05:13:59;;;;;;;;;;;;;;;2.50;93.31;99966.97;4197284;28;20023;-71
2024/01/14 05:16:01;;;;;;;;;;;;;;;2.51;93.30;99966.00;4198581;28;20020;-71
2024/01/14 05:18:03;;;;;;;;;;;;;;;2.51;93.18;99964.16;4198315;28;20017;-71
2024/01/14 05:20:06;;;;;;;;;;;;;;;2.51;93.60;99966.00;4197313;28;20373;-71
2024/01/14 05:22:08;;;;;;;;;;;;;;;2.50;93.29;99965.13;4196179;28;19992;-71
2024/01/14 05:24:11;;;;;;;;;;;;;;;2.51;93.51;99966.00;4197240;28;20019;-71
2024/01/14 05:26:13;;;;;;;;;;;;;;;2.51;93.18;99966.00;4213886;28;19977;-71
2024/01/14 05:28:14;;;;;;;;;;;;;;;2.51;93.32;99963.31;4196706;28;19963;-71
2024/01/14 05:30:16;;;;;;;;;;;;;;;2.51;93.25;99966.00;4198488;28;20011;-71
2024/01/14 05:32:17;;;;;;;;;;;;;;;2.50;93.66;99957.13;4196437;28;19955;-71
2024/01/14 05:34:19;;;;;;;;;;;;;;;2.52;93.34;99964.97;4198655;28;20016;-71
2024/01/14 05:36:21;;;;;;;;;;;;;;;2.52;93.34;99959.66;4197123;28;20012;-71
2024/01/14 05:38:23;;;;;;;;;;;;;;;2.53;93.42;99964.00;4195502;28;19964;-71
2024/01/14 05:40:27;;;;;;;;;;;;;;;2.52;93.14;99963.19;4171424;28;19936;-71
2024/01/14 05:42:29;;;;;;;;;;;;;;;2.52;93.16;99959.66;4197171;28;19978;-71
2024/01/14 05:44:31;;;;;;;;;;;;;;;2.53;93.20;99956.00;4196040;28;19924;-71
2024/01/14 05:46:33;;;;;;;;;;;;;;;2.53;93.34;99964.84;4198696;28;19932;-71
2024/01/14 05:48:35;;;;;;;;;;;;;;;2.53;93.10;99962.19;4213237;28;20051;-71
2024/01/14 05:50:37;;;;;;;;;;;;;;;2.53;93.09;99951.50;4198197;28;20011;-71
2024/01/14 05:52:39;;;;;;;;;;;;;;;2.54;93.48;99960.38;4196877;28;20371;-71
2024/01/14 05:54:43;;;;;;;;;;;;;;;2.55;93.10;99958.53;4198396;28;20011;-71
2024/01/14 05:56:46;;;;;;;;;;;;;;;2.56;93.26;99952.22;4197326;28;19970;-71
2024/01/14 05:58:48;;;;;;;;;;;;;;;2.56;93.01;99958.41;4198477;28;20015;-71
2024/01/14 06:00:50;;;;;;;;;;;;;;;2.56;93.05;99949.56;4197790;28;20026;-71
2024/01/14 06:02:52;;;;;;;;;;;;;;;2.58;92.91;99958.25;4199109;28;20019;-71
2024/01/14 06:04:54;;;;;;;;;;;;;;;2.58;92.93;99958.25;4198079;28;20038;-72
2024/01/14 06:06:56;;;;;;;;;;;;;;;2.57;92.90;99954.75;4188592;28;20434;-72
2024/01/14 06:08:58;;;;;;;;;;;;;;;2.59;92.84;99957.28;4206191;28;20698;-71
2024/01/14 06:11:01;;;;;;;;;;;;;;;2.60;92.94;99966.94;4197669;28;19933;-72
2024/01/14 06:13:05;;;;;;;;;;;;;;;2.59;92.61;99951.94;4197573;28;20453;-71
2024/01/14 06:15:07;;;;;;;;;;;;;;;2.58;92.99;99953.75;4205231;28;19954;-71
2024/01/14 06:17:09;;;;;;;;;;;;;;;2.60;92.84;99945.59;4206420;28;19956;-72
2024/01/14 06:19:11;;;;;;;;;;;;;;;2.62;92.49;99951.66;4198557;28;19925;-71
2024/01/14 06:21:13;;;;;;;;;;;;;;;2.60;92.66;99950.94;4205080;28;20007;-71
2024/01/14 06:23:16;;;;;;;;;;;;;;;2.59;92.92;99958.09;4198658;28;19967;-71
2024/01/14 06:25:18;;;;;;;;;;;;;;;2.60;92.85;99950.94;4197824;28;19968;-71
2024/01/14 06:27:20;;;;;;;;;;;;;;;2.61;92.63;99952.63;4197595;28;19924;-71
2024/01/14 06:29:24;;;;;;;;;;;;;;;2.61;92.65;99963.28;4198616;28;19964;-71
2024/01/14 06:31:25;;;;;;;;;;;;;;;2.60;92.46;99964.28;4197314;28;20019;-71
2024/01/14 06:33:27;;;;;;;;;;;;;;;2.60;92.74;99953.59;4197770;28;20271;-74
2024/01/14 06:35:29;;;;;;;;;;;;;;;2.60;92.65;99950.94;4199520;28;19951;-72
2024/01/14 06:37:30;;;;;;;;;;;;;;;2.59;92.53;99950.09;4214724;28;19971;-73
2024/01/14 06:39:31;;;;;;;;;;;;;;;2.59;92.34;99947.44;4198467;28;19939;-73
2024/01/14 06:41:34;;;;;;;;;;;;;;;2.58;92.49;99948.41;4197692;28;20015;-74
2024/01/14 06:43:36;;;;;;;;;;;;;;;2.58;92.37;99948.41;4198684;28;19967;-71
2024/01/14 06:45:39;;;;;;;;;;;;;;;2.58;92.24;99947.59;4182167;28;19925;-72
2024/01/14 06:47:41;;;;;;;;;;;;;;;2.58;92.25;99952.91;4198699;28;19968;-72
2024/01/14 06:49:43;;;;;;;;;;;;;;;2.58;92.27;99945.75;4198292;28;20410;-72
2024/01/14 06:51:45;;;;;;;;;;;;;;;2.58;92.25;99940.41;4199659;28;20497;-73
2024/01/14 06:53:47;;;;;;;;;;;;;;;2.57;92.02;99949.41;4198413;28;19967;-73
2024/01/14 06:55:49;;;;;;;;;;;;;;;2.58;92.38;99956.41;4199103;28;19952;-73
2024/01/14 06:57:51;;;;;;;;;;;;;;;2.56;92.20;99942.41;4198105;28;19982;-73
2024/01/14 06:59:52;;;;;;;;;;;;;;;2.57;92.15;99953.88;4206860;28;20412;-73
2024/01/14 07:01:56;;;;;;;;;;;;;;;2.56;92.16;99950.41;4200023;28;19924;-73
2024/01/14 07:03:58;;;;;;;;;;;;;;;2.56;92.45;99958.41;4198258;28;20396;-73
2024/01/14 07:06:00;;;;;;;;;;;;;;;2.56;92.40;99961.06;4199591;28;19967;-73
2024/01/14 07:08:04;;;;;;;;;;;;;;;2.58;92.12;99959.06;4200805;28;19925;-73
2024/01/14 07:10:07;;;;;;;;;;;;;;;2.57;92.33;99948.56;4197181;28;19968;-75
2024/01/14 07:12:09;;;;;;;;;;;;;;;2.56;92.55;99957.56;4197013;28;20051;-72
2024/01/14 07:14:11;;;;;;;;;;;;;;;2.57;92.44;99948.56;4181959;28;19928;-73
2024/01/14 07:16:12;;;;;;;;;;;;;;;2.56;92.38;99949.56;4202169;28;19960;-72
2024/01/14 07:18:16;;;;;;;;;;;;;;;2.54;92.83;99957.72;4220574;28;19981;-73
2024/01/14 07:20:18;;;;;;;;;;;;;;;2.55;92.77;99962.03;4200785;28;20445;-73
2024/01/14 07:22:20;;;;;;;;;;;;;;;2.56;92.59;99954.91;4197682;28;20015;-72
2024/01/14 07:24:22;;;;;;;;;;;;;;;2.55;92.70;99964.69;4198016;28;20093;-72
2024/01/14 07:26:24;;;;;;;;;;;;;;;2.55;92.72;99959.38;4195361;28;20406;-72
2024/01/14 07:28:26;;;;;;;;;;;;;;;2.56;92.92;99957.56;4196090;28;20298;-72
2024/01/14 07:30:28;;;;;;;;;;;;;;;2.57;92.71;99961.88;4197054;28;19967;-72
2024/01/14 07:32:30;;;;;;;;;;;;;;;2.55;92.68;99956.69;4196982;28;19971;-71
2024/01/14 07:34:35;;;;;;;;;;;;;;;2.54;92.81;99960.38;4187536;28;19971;-72
2024/01/14 07:36:37;;;;;;;;;;;;;;;2.56;92.96;99960.22;4213690;28;19967;-71
2024/01/14 07:38:40;;;;;;;;;;;;;;;2.58;92.63;99968.91;4211864;28;20386;-71
2024/01/14 07:40:41;;;;;;;;;;;;;;;2.56;92.66;99963.72;4204933;28;19999;-70
2024/01/14 07:42:43;;;;;;;;;;;;;;;2.58;92.54;99963.59;4195540;28;20896;-71
2024/01/14 07:44:45;;;;;;;;;;;;;;;2.57;92.75;99957.41;4194054;28;20020;-73
2024/01/14 07:46:47;;;;;;;;;;;;;;;2.57;92.78;99962.75;4192089;28;19999;-69
2024/01/14 07:48:49;;;;;;;;;;;;;;;2.57;92.68;99970.75;4195713;28;20440;-69
2024/01/14 07:50:53;;;;;;;;;;;;;;;2.58;92.70;99969.75;4193921;28;20027;-70
2024/01/14 07:52:55;;;;;;;;;;;;;;;2.58;92.63;99961.75;4195859;28;20608;-70
2024/01/14 07:54:57;;;;;;;;;;;;;;;2.59;92.55;99965.28;4193117;28;20011;-71
2024/01/14 07:56:59;;;;;;;;;;;;;;;2.59;92.51;99962.59;4196892;28;20016;-70
2024/01/14 07:59:01;;;;;;;;;;;;;;;2.59;92.49;99957.28;4195733;28;20486;-72
2024/01/14 08:01:03;;;;;;;;;;;;;;;2.58;92.62;99958.25;4212335;28;20020;-70
2024/01/14 08:03:05;;;;;;;;;;;;;;;2.60;92.42;99964.28;4196914;28;20019;-68
2024/01/14 08:05:07;;;;;;;;;;;;;;;2.59;92.54;99966.09;4185942;28;20064;-70
2024/01/14 08:07:10;;;;;;;;;;;;;;;2.60;92.15;99964.28;4194015;28;20382;-69
2024/01/14 08:09:12;;;;;;;;;;;;;;;2.59;92.24;99966.09;4194313;28;19932;-69
2024/01/14 08:11:15;;;;;;;;;;;;;;;2.60;92.21;99956.28;4194047;28;20407;-68
2024/01/14 08:13:15;;;;;;;;;;;;;;;2.61;92.37;99952.63;4194860;28;20023;-70
2024/01/14 08:15:17;;;;;;;;;;;;;;;2.59;92.22;99960.78;4192231;28;20305;-69
2024/01/14 08:17:19;;;;;;;;;;;;;;;2.59;92.41;99958.09;4196100;28;20023;-68
2024/01/14 08:19:20;;;;;;;;;;;;;;;2.60;92.36;99957.13;4195058;28;19992;-68
2024/01/14 08:21:22;;;;;;;;;;;;;;;2.60;92.26;99959.78;4193433;28;19962;-69
2024/01/14 08:23:25;;;;;;;;;;;;;;;2.61;92.22;99953.47;4194891;28;20342;-69
2024/01/14 08:25:27;;;;;;;;;;;;;;;2.61;92.13;99963.28;4193773;28;20027;-69
2024/01/14 08:27:30;;;;;;;;;;;;;;;2.64;92.33;99949.66;4194644;28;20015;-68
2024/01/14 08:29:31;;;;;;;;;;;;;;;2.64;92.10;99952.34;4202064;28;19974;-69
2024/01/14 08:31:32;;;;;;;;;;;;;;;2.63;91.89;99951.50;4193561;28;19928;-70
2024/01/14 08:33:34;;;;;;;;;;;;;;;2.64;92.11;99953.16;4195666;28;20376;-69
2024/01/14 08:35:37;;;;;;;;;;;;;;;2.64;92.08;99944.34;4193163;28;20011;-69
2024/01/14 08:37:39;;;;;;;;;;;;;;;2.65;91.83;99957.53;4190102;28;20023;-69
2024/01/14 08:39:42;;;;;;;;;;;;;;;2.68;91.60;99951.03;4193768;28;20012;-67
2024/01/14 08:41:44;;;;;;;;;;;;;;;2.67;91.63;99949.38;4192585;28;20458;-68
2024/01/14 08:43:45;;;;;;;;;;;;;;;2.66;91.52;99948.53;4195368;28;19983;-69
2024/01/14 08:45:47;;;;;;;;;;;;;;;2.68;91.75;99943.03;4194848;28;20064;-69
2024/01/14 08:47:49;;;;;;;;;;;;;;;2.69;91.59;99953.56;4193868;28;20022;-69
2024/01/14 08:49:51;;;;;;;;;;;;;;;2.69;91.70;99956.22;4191837;28;20390;-70
2024/01/14 08:51:53;;;;;;;;;;;;;;;2.71;91.45;99953.41;4195323;28;20000;-69
2024/01/14 08:54:00;;;;;;;;;;;;;;;2.74;91.34;99958.47;4193742;28;20032;-69
2024/01/14 08:56:04;;;;;;;;;;;;;;;2.74;91.35;99958.47;4193945;28;20027;-68
2024/01/14 08:58:06;;;;;;;;;;;;;;;2.73;91.35;99954.13;4193165;28;20354;-70
2024/01/14 09:00:09;;;;;;;;;;;;;;;2.73;91.37;99954.13;4195608;28;20023;-69
2024/01/14 09:02:10;;;;;;;;;;;;;;;2.74;91.18;99955.78;4193900;28;20015;-69
2024/01/14 09:04:12;;;;;;;;;;;;;;;2.75;90.97;99960.16;4195328;28;20015;-70
2024/01/14 09:06:14;;;;;;;;;;;;;;;2.75;91.26;99960.16;4195559;28;20000;-70
2024/01/14 09:08:16;;;;;;;;;;;;;;;2.77;91.21;99968.84;4194189;28;20450;-70
2024/01/14 09:10:17;;;;;;;;;;;;;;;2.77;91.06;99965.34;4194792;28;20881;-69
2024/01/14 09:12:20;;;;;;;;;;;;;;;2.78;90.77;99967.88;4195567;28;19924;-69
2024/01/14 09:14:23;;;;;;;;;;;;;;;2.78;90.54;99961.69;4195914;28;20018;-69
2024/01/14 09:16:25;;;;;;;;;;;;;;;2.78;90.77;99959.03;4194867;28;20390;-70
2024/01/14 09:18:27;;;;;;;;;;;;;;;2.79;90.73;99963.38;4202582;28;20012;-70
2024/01/14 09:20:29;;;;;;;;;;;;;;;2.78;90.80;99967.88;4194145;28;20019;-69
2024/01/14 09:22:31;;;;;;;;;;;;;;;2.80;90.70;99967.72;4194271;28;20040;-70
2024/01/14 09:24:33;;;;;;;;;;;;;;;2.80;90.42;99973.06;4194638;28;20027;-69
2024/01/14 09:26:35;;;;;;;;;;;;;;;2.79;90.61;99974.03;4194654;28;20055;-69
2024/01/14 09:28:38;;;;;;;;;;;;;;;2.79;90.77;99974.88;4194469;28;20019;-70
2024/01/14 09:30:40;;;;;;;;;;;;;;;2.82;90.40;99981.75;4194437;28;20028;-73
2024/01/14 09:32:43;;;;;;;;;;;;;;;2.80;90.48;99981.88;4193141;28;20023;-69
2024/01/14 09:34:44;;;;;;;;;;;;;;;2.80;90.56;99976.56;4193831;28;20455;-70
2024/01/14 09:36:46;;;;;;;;;;;;;;;2.83;90.48;99972.75;4194554;28;20024;-68
2024/01/14 09:38:48;;;;;;;;;;;;;;;2.83;90.51;99978.09;4194715;28;20031;-70
2024/01/14 09:40:52;;;;;;;;;;;;;;;2.85;90.12;99978.78;4193979;28;20351;-70
2024/01/14 09:42:54;;;;;;;;;;;;;;;2.85;90.18;99974.31;4193780;28;20373;-70
2024/01/14 09:44:59;;;;;;;;;;;;;;;2.87;90.32;99976.84;4193552;28;20505;-69
2024/01/14 09:47:00;;;;;;;;;;;;;;;2.87;90.20;99983.00;4193971;28;20023;-69
2024/01/14 09:49:02;;;;;;;;;;;;;;;2.88;89.88;99978.50;4193412;28;20016;-69
2024/01/14 09:51:04;;;;;;;;;;;;;;;2.89;89.83;99977.50;4192441;28;19924;-69
2024/01/14 09:53:09;;;;;;;;;;;;;;;2.88;89.68;99986.50;4193604;28;20486;-73
2024/01/14 09:55:11;;;;;;;;;;;;;;;2.88;90.17;99984.69;4191716;28;20043;-69
2024/01/14 09:57:14;;;;;;;;;;;;;;;2.88;89.88;99975.81;4192827;28;20019;-70
2024/01/14 09:59:16;;;;;;;;;;;;;;;2.87;90.32;99972.31;4194547;28;20027;-71
2024/01/14 10:01:20;;;;;;;;;;;;;;;2.88;90.41;99965.16;4209893;28;20635;-69
2024/01/14 10:03:22;;;;;;;;;;;;;;;2.88;90.15;99978.50;4194002;28;20389;-70
2024/01/14 10:05:25;;;;;;;;;;;;;;;2.91;90.17;99970.19;4194143;28;20007;-70
2024/01/14 10:07:26;;;;;;;;;;;;;;;2.92;89.93;99971.88;4194500;28;20442;-70
2024/01/14 10:09:28;;;;;;;;;;;;;;;2.93;90.08;99973.59;4193183;28;20548;-70
2024/01/14 10:11:30;;;;;;;;;;;;;;;2.95;89.60;99963.59;4191564;28;20382;-69
2024/01/14 10:13:32;;;;;;;;;;;;;;;2.95;89.78;99974.25;4192455;28;20015;-69
2024/01/14 10:15:34;;;;;;;;;;;;;;;2.93;89.76;99960.25;4193456;28;20016;-69
2024/01/14 10:17:38;;;;;;;;;;;;;;;2.95;89.83;99954.75;4194401;28;20011;-70
2024/01/14 10:19:40;;;;;;;;;;;;;;;2.95;89.72;99960.09;4193184;28;20018;-69
2024/01/14 10:21:42;;;;;;;;;;;;;;;2.96;89.78;99951.94;4192703;28;20015;-70
2024/01/14 10:23:44;;;;;;;;;;;;;;;2.98;89.68;99959.78;4194023;28;20464;-70
2024/01/14 10:25:46;;;;;;;;;;;;;;;2.97;89.67;99948.28;4195000;28;20489;-70
2024/01/14 10:27:47;;;;;;;;;;;;;;;2.99;89.57;99945.47;4195279;28;20019;-71
2024/01/14 10:29:49;;;;;;;;;;;;;;;3.00;89.30;99934.66;4194274;28;20023;-70
2024/01/14 10:31:51;;;;;;;;;;;;;;;3.00;89.33;99936.47;4195093;28;20011;-71
2024/01/14 10:33:54;;;;;;;;;;;;;;;3.01;89.47;99938.13;4194117;28;20018;-70
2024/01/14 10:35:56;;;;;;;;;;;;;;;2.99;89.60;99942.78;4193905;28;20023;-71
2024/01/14 10:37:58;;;;;;;;;;;;;;;3.00;89.40;99939.97;4191210;28;20039;-70
2024/01/14 10:40:00;;;;;;;;;;;;;;;3.00;89.57;99931.16;4206289;28;20390;-72
2024/01/14 10:42:02;;;;;;;;;;;;;;;3.02;89.49;99934.50;4191669;28;20016;-71